Sadan Bayraktar — TCRB — position and weather

sailwx.info

Track history (hours):
 
Tides and Currents Weather Stations Pressure Air Temp Water Temp Dewpoint Dewpoint Depression Visibility Wind Speed Wind Dir Waves Ship Positions

Sadan Bayraktar

Last reported at 2017-Jul-27 01:59 UTC. Time now 2017-Jul-27 02:43 UTC.
Position N 38°33' E 000°19'.

Length 116 m; draft 5.8 m.

Type: Ship. MMSI: 271000653.

Date/timePositionNaut miles runAvg speedWind from/ knotsBaromVisibWave heightAir tempDewpointWater temp
2017-Jul-27 01:59N 38°33' E 000°19'611.4
2017-Jul-27 01:29N 38°27' E 000°16'4311.4
2017-Jul-26 21:41N 37°51' W 000°15'511.7
2017-Jul-26 21:15N 37°47' W 000°19'311.7
2017-Jul-26 21:00N 37°45' W 000°21'1112.1
2017-Jul-26 20:07N 37°36' W 000°28'24011.6
2017-Jul-25 23:27N 36°01' W 005°03'715.6
2017-Jul-25 23:01N 36°00' W 005°11'815.7
2017-Jul-25 22:30N 35°59' W 005°21'815.4
2017-Jul-25 22:01N 35°57' W 005°30'1413.9
2017-Jul-25 21:01N 35°54' W 005°47'213.5
2017-Jul-25 20:50N 35°54' W 005°50'513.5
2017-Jul-25 20:28N 35°52' W 005°55'12011.5
2017-Jul-25 09:57N 34°12' W 007°18'611.3
2017-Jul-25 09:26N 34°07' W 007°21'511.2
2017-Jul-25 08:59N 34°02' W 007°24'25 1.1
2017-Jul-24 10:36N 33°39' W 007°34'312.0
2017-Jul-24 10:23N 33°42' W 007°33'612.0
2017-Jul-24 09:53N 33°48' W 007°32'28610.2
2017-Jul-23 05:48N 36°11' W 002°30'1011.9
2017-Jul-23 04:57N 36°11' W 002°18'1411.4
2017-Jul-23 03:41N 36°11' W 001°60'1011.6
2017-Jul-23 02:51N 36°12' W 001°48'711.7
2017-Jul-23 02:15N 36°14' W 001°40'3512.4
2017-Jul-22 23:23N 36°25' W 000°58'4812.5
2017-Jul-22 19:30N 36°39' W 000°00'1712.5
2017-Jul-22 18:07N 36°45' E 000°20'212.6
2017-Jul-22 17:55N 36°46' E 000°23'1412.5
2017-Jul-22 16:46N 36°51' E 000°40'312.3
2017-Jul-22 16:30N 36°52' E 000°44'2312.1
2017-Jul-22 14:34N 36°59' E 001°11'712.4
2017-Jul-22 13:59N 37°02' E 001°20'712.6
2017-Jul-22 13:26N 37°04' E 001°28'612.8
2017-Jul-22 12:59N 37°06' E 001°35'1313.1
2017-Jul-22 11:59N 37°09' E 001°51'7912.5
2017-Jul-22 05:41N 37°13' E 003°30'3012.4
2017-Jul-22 03:17N 37°13' E 004°07'812.3
2017-Jul-22 02:39N 37°13' E 004°17'312.4
2017-Jul-22 02:26N 37°13' E 004°20'612.7
2017-Jul-22 01:57N 37°14' E 004°28'1612.3
2017-Jul-22 00:38N 37°14' E 004°48'512.3
2017-Jul-22 00:12N 37°15' E 004°55'312.3
2017-Jul-22 00:00N 37°15' E 004°58'  
Track history (hours):
 
Tides and Currents Weather Stations Pressure Air Temp Water Temp Dewpoint Dewpoint Depression Visibility Wind Speed Wind Dir Waves Ship Positions

Sadan Bayraktar

Last reported at 2017-Jul-27 01:59 UTC. Time now 2017-Jul-27 02:43 UTC.
Position N 38°33' E 000°19'.

Length 116 m; draft 5.8 m.

Type: Ship. MMSI: 271000653.

Date/timePositionNaut miles runAvg speedWind from/ knotsBaromVisibWave heightAir tempDewpointWater temp
2017-Jul-27 01:59N 38°33' E 000°19'611.4
2017-Jul-27 01:29N 38°27' E 000°16'4311.4
2017-Jul-26 21:41N 37°51' W 000°15'511.7
2017-Jul-26 21:15N 37°47' W 000°19'311.7
2017-Jul-26 21:00N 37°45' W 000°21'1112.1
2017-Jul-26 20:07N 37°36' W 000°28'24011.6
2017-Jul-25 23:27N 36°01' W 005°03'715.6
2017-Jul-25 23:01N 36°00' W 005°11'815.7
2017-Jul-25 22:30N 35°59' W 005°21'815.4
2017-Jul-25 22:01N 35°57' W 005°30'1413.9
2017-Jul-25 21:01N 35°54' W 005°47'213.5
2017-Jul-25 20:50N 35°54' W 005°50'513.5
2017-Jul-25 20:28N 35°52' W 005°55'12011.5
2017-Jul-25 09:57N 34°12' W 007°18'611.3
2017-Jul-25 09:26N 34°07' W 007°21'511.2
2017-Jul-25 08:59N 34°02' W 007°24'25 1.1
2017-Jul-24 10:36N 33°39' W 007°34'312.0
2017-Jul-24 10:23N 33°42' W 007°33'612.0
2017-Jul-24 09:53N 33°48' W 007°32'28610.2
2017-Jul-23 05:48N 36°11' W 002°30'1011.9
2017-Jul-23 04:57N 36°11' W 002°18'1411.4
2017-Jul-23 03:41N 36°11' W 001°60'1011.6
2017-Jul-23 02:51N 36°12' W 001°48'711.7
2017-Jul-23 02:15N 36°14' W 001°40'3512.4
2017-Jul-22 23:23N 36°25' W 000°58'4812.5
2017-Jul-22 19:30N 36°39' W 000°00'1712.5
2017-Jul-22 18:07N 36°45' E 000°20'212.6
2017-Jul-22 17:55N 36°46' E 000°23'1412.5
2017-Jul-22 16:46N 36°51' E 000°40'312.3
2017-Jul-22 16:30N 36°52' E 000°44'2312.1
2017-Jul-22 14:34N 36°59' E 001°11'712.4
2017-Jul-22 13:59N 37°02' E 001°20'712.6
2017-Jul-22 13:26N 37°04' E 001°28'612.8
2017-Jul-22 12:59N 37°06' E 001°35'1313.1
2017-Jul-22 11:59N 37°09' E 001°51'7912.5
2017-Jul-22 05:41N 37°13' E 003°30'3012.4
2017-Jul-22 03:17N 37°13' E 004°07'812.3
2017-Jul-22 02:39N 37°13' E 004°17'312.4
2017-Jul-22 02:26N 37°13' E 004°20'612.7
2017-Jul-22 01:57N 37°14' E 004°28'1612.3
2017-Jul-22 00:38N 37°14' E 004°48'512.3
2017-Jul-22 00:12N 37°15' E 004°55'312.3
2017-Jul-22 00:00N 37°15' E 004°58'  

Dump ship's entire track history